Time;durP1;ratioP1;P1;durP2;ratioP2;P2;SDS_P1;SDS_P2;PMS_P1;PMS_P2;Temp;Humidity;BMP_temperature;BMP_pressure;BME280_temperature;BME280_humidity;BME280_pressure;Samples;Min_cycle;Max_cycle;Signal;HPM_P1;HPM_P2
2022/12/25 00:00:06;;;;;;;52.45;33.25;;;;;;;3.48;100.00;100754.38;4961833;28;20046;-77
2022/12/25 00:02:32;;;;;;;48.95;34.30;;;;;;;2.86;100.00;100625.22;4965753;28;20861;-77
2022/12/25 00:04:57;;;;;;;55.45;33.85;;;;;;;2.96;100.00;100653.22;4981108;28;20058;-75
2022/12/25 00:07:23;;;;;;;45.35;33.10;;;;;;;3.02;100.00;100704.41;4976273;28;20512;-75
2022/12/25 00:09:48;;;;;;;54.67;32.05;;;;;;;2.96;100.00;100686.03;4967326;28;20375;-77
2022/12/25 00:12:14;;;;;;;44.58;29.70;;;;;;;3.55;100.00;100797.84;4985288;28;20045;-77
2022/12/25 00:14:39;;;;;;;48.42;33.65;;;;;;;3.53;100.00;100783.94;4967084;28;20540;-77
2022/12/25 00:17:04;;;;;;;50.53;30.95;;;;;;;3.71;100.00;100801.84;4980778;28;20418;-77
2022/12/25 00:19:30;;;;;;;46.33;31.83;;;;;;;3.77;100.00;100802.09;4984708;28;20057;-77
2022/12/25 00:21:55;;;;;;;47.13;31.58;;;;;;;3.92;100.00;100823.34;4987050;28;20053;-77
2022/12/25 00:24:21;;;;;;;47.28;31.42;;;;;;;3.76;100.00;100815.88;4981870;28;20394;-78
2022/12/25 00:26:46;;;;;;;43.95;30.58;;;;;;;3.24;100.00;100719.00;4969770;28;20039;-77
2022/12/25 00:29:12;;;;;;;43.00;26.70;;;;;;;3.30;100.00;100705.34;4967836;28;20046;-77
2022/12/25 00:31:38;;;;;;;42.75;28.95;;;;;;;3.99;100.00;100827.91;4975975;28;20038;-77
2022/12/25 00:34:03;;;;;;;45.47;30.20;;;;;;;3.40;100.00;100720.41;4975732;28;20197;-76
2022/12/25 00:36:29;;;;;;;46.35;31.02;;;;;;;3.28;100.00;100700.13;4984069;28;20073;-77
2022/12/25 00:38:54;;;;;;;39.22;27.70;;;;;;;3.88;100.00;100824.06;4976646;28;20043;-76
2022/12/25 00:44:08;;;;;;;37.97;26.90;;;;;;;3.63;100.00;100800.69;4963897;28;20058;-76
2022/12/25 00:46:34;;;;;;;44.90;27.42;;;;;;;3.72;100.00;100809.72;4973540;28;20059;-76
2022/12/25 00:49:00;;;;;;;45.67;29.38;;;;;;;3.19;100.00;100717.94;4976521;28;20039;-77
2022/12/25 00:51:25;;;;;;;44.25;29.13;;;;;;;2.82;100.00;100679.50;4969197;28;20065;-76
2022/12/25 00:53:51;;;;;;;45.03;28.42;;;;;;;3.61;100.00;100817.97;4982147;28;20058;-77
2022/12/25 00:56:16;;;;;;;32.47;26.00;;;;;;;3.77;100.00;100821.13;4964820;28;20098;-77
2022/12/25 00:58:42;;;;;;;41.22;28.00;;;;;;;3.72;100.00;100819.19;4979756;28;20050;-76
2022/12/25 01:01:10;;;;;;;43.72;25.33;;;;;;;3.69;100.00;100807.00;4993124;28;20493;-76
2022/12/25 01:03:37;;;;;;;48.50;26.05;;;;;;;3.61;100.00;100817.97;5002997;28;20045;-76
2022/12/25 01:06:05;;;;;;;38.47;26.08;;;;;;;3.48;100.00;100827.00;4997227;28;20098;-77
2022/12/25 01:08:34;;;;;;;40.83;28.40;;;;;;;3.52;100.00;100821.97;5000830;28;20054;-77
2022/12/25 01:11:07;;;;;;;34.92;26.10;;;;;;;2.95;100.00;100724.03;5003698;28;20104;-76
2022/12/25 01:13:34;;;;;;;;;;;;;;;3.77;100.00;100835.81;4990263;28;20050;-77
2022/12/25 01:16:10;;;;;;;45.10;24.45;;;;;;;3.55;100.00;100810.81;4984910;28;19918;-75
2022/12/25 01:18:37;;;;;;;42.70;25.95;;;;;;;3.30;100.00;100786.63;4979386;28;20031;-75
2022/12/25 01:21:11;;;;;;;37.63;24.20;;;;;;;3.68;100.00;100830.31;4969275;28;20038;-76
2022/12/25 01:23:37;;;;;;;37.45;24.65;;;;;;;3.51;100.00;100832.28;4981093;28;20058;-75
2022/12/25 01:26:06;;;;;;;37.17;24.73;;;;;;;3.59;100.00;100823.09;4984776;28;20482;-76
2022/12/25 01:28:32;;;;;;;43.97;25.08;;;;;;;2.82;100.00;100671.72;4989436;28;20546;-76
2022/12/25 01:30:58;;;;;;;35.10;24.88;;;;;;;3.44;100.00;100771.56;4999426;28;20158;-76
2022/12/25 01:33:23;;;;;;;37.20;26.63;;;;;;;3.31;100.00;100740.84;4985913;28;20065;-75
2022/12/25 01:35:48;;;;;;;37.67;21.38;;;;;;;3.19;100.00;100705.00;4981728;28;20178;-75
2022/12/25 01:38:14;;;;;;;37.25;26.00;;;;;;;3.64;100.00;100789.50;4985182;28;20128;-76
2022/12/25 01:40:39;;;;;;;40.30;24.45;;;;;;;3.63;100.00;100824.06;4986411;28;20058;-77
2022/12/25 01:43:30;;;;;;;36.60;24.02;;;;;;;3.58;100.00;100822.22;4988341;28;20449;-77
2022/12/25 01:45:56;;;;;;;36.97;23.75;;;;;;;3.61;100.00;100815.38;4985549;28;20054;-78
2022/12/25 01:48:36;;;;;;;38.80;21.95;;;;;;;3.66;100.00;100801.69;4981026;28;20042;-77
2022/12/25 01:51:14;;;;;;;29.60;21.58;;;;;;;3.05;100.00;100712.28;4985763;28;20497;-77
2022/12/25 01:53:40;;;;;;;43.15;28.40;;;;;;;3.74;100.00;100827.91;4999301;28;20045;-78
2022/12/25 01:56:07;;;;;;;35.95;22.48;;;;;;;3.46;100.00;100807.91;5001285;28;20056;-77
2022/12/25 01:58:33;;;;;;;36.67;24.05;;;;;;;3.43;100.00;100790.53;4992178;28;20915;-75
2022/12/25 02:00:58;;;;;;;41.35;24.40;;;;;;;3.45;100.00;100808.75;4987360;28;20046;-76
2022/12/25 02:03:24;;;;;;;39.75;23.98;;;;;;;3.47;100.00;100815.75;5000273;28;20030;-76
2022/12/25 02:05:50;;;;;;;35.47;25.40;;;;;;;3.38;100.00;100816.31;5004105;28;20057;-76
2022/12/25 02:08:18;;;;;;;34.65;22.85;;;;;;;3.31;100.00;100797.88;4999670;28;20053;-77
2022/12/25 02:10:44;;;;;;;34.40;23.30;;;;;;;2.55;100.00;100667.28;4998089;28;20042;-77
2022/12/25 02:13:17;;;;;;;34.05;23.40;;;;;;;2.79;100.00;100713.06;5001801;28;20524;-78
2022/12/25 02:16:02;;;;;;;30.33;21.83;;;;;;;3.10;100.00;100832.56;4998627;28;20054;-76
2022/12/25 02:18:40;;;;;;;37.85;23.83;;;;;;;3.28;100.00;100847.94;4981931;28;20073;-75
2022/12/25 02:21:05;;;;;;;35.97;21.75;;;;;;;3.45;100.00;100842.47;5000695;28;20405;-76
2022/12/25 02:24:15;;;;;;;34.95;22.63;;;;;;;2.76;100.00;100713.81;4999445;28;20056;-77
2022/12/25 02:26:57;;;;;;;32.50;22.27;;;;;;;3.36;100.00;100837.81;4952126;28;20101;-77
2022/12/25 02:29:45;;;;;;;27.35;20.20;;;;;;;3.27;100.00;100814.16;4950932;28;20141;-76
2022/12/25 02:32:31;;;;;;;36.17;25.63;;;;;;;2.24;100.00;100692.03;4987301;28;20088;-76
2022/12/25 02:35:14;;;;;;;37.58;24.00;;;;;;;2.96;100.00;100844.16;5000186;28;20046;-76
2022/12/25 02:38:11;;;;;;;32.30;22.27;;;;;;;2.74;100.00;100842.47;5000169;28;20528;-75
2022/12/25 02:40:53;;;;;;;37.33;24.05;;;;;;;2.68;100.00;100808.53;4998863;28;20129;-76
2022/12/25 03:11:29;;;;;;;34.10;24.40;;;;;;;3.22;100.00;100873.63;5001261;28;20398;-79
2022/12/25 03:11:46;;;;;;;39.17;25.60;;;;;;;3.25;100.00;100872.84;4980271;28;20042;-77
2022/12/25 03:16:57;;;;;;;39.80;23.63;;;;;;;2.37;100.00;100768.50;4995781;28;20117;-78
2022/12/25 03:27:54;;;;;;;40.30;24.33;;;;;;;2.87;100.00;100856.75;4985059;28;20100;-77
2022/12/25 03:36:43;;;;;;;38.63;22.27;;;;;;;2.93;100.00;100863.06;4999164;28;20193;-77
2022/12/25 03:41:03;;;;;;;38.85;23.38;;;;;;;3.09;100.00;100861.03;5007497;28;20427;-77
2022/12/25 04:37:39;;;;;;;24.30;16.80;;;;;;;3.24;100.00;100897.91;4994949;28;20045;-77
2022/12/25 04:40:05;;;;;;;27.95;19.50;;;;;;;3.34;100.00;100918.16;4996104;28;20046;-78
2022/12/25 04:42:31;;;;;;;30.42;17.02;;;;;;;3.06;100.00;100899.81;4988652;28;20042;-77
2022/12/25 04:44:56;;;;;;;26.65;17.48;;;;;;;3.47;100.00;100955.84;5002613;28;20465;-76
2022/12/25 04:47:22;;;;;;;25.55;17.63;;;;;;;2.84;100.00;100841.97;4999625;28;20138;-76
2022/12/25 04:49:47;;;;;;;29.05;19.15;;;;;;;3.31;100.00;100938.81;5003407;28;20661;-76
2022/12/25 04:52:13;;;;;;;21.73;16.63;;;;;;;3.45;100.00;100935.84;4993651;28;20289;-77
2022/12/25 04:54:38;;;;;;;29.05;16.88;;;;;;;3.21;100.00;100899.50;4987445;28;25485;-76
2022/12/25 04:57:04;;;;;;;26.38;17.88;;;;;;;2.70;100.00;100796.53;5003429;28;20133;-76
2022/12/25 04:59:29;;;;;;;23.30;16.50;;;;;;;3.22;100.00;100919.44;4975719;28;20038;-76
2022/12/25 05:01:55;;;;;;;26.05;17.38;;;;;;;2.99;100.00;100901.28;4987164;28;20043;-76
2022/12/25 05:04:20;;;;;;;23.48;15.25;;;;;;;3.15;100.00;100923.50;4975288;28;20387;-76
2022/12/25 05:06:46;;;;;;;23.77;14.65;;;;;;;2.54;100.00;100801.09;4974235;28;20047;-77
2022/12/25 05:09:11;;;;;;;25.35;17.75;;;;;;;2.79;100.00;100868.53;4987819;28;20858;-76
2022/12/25 05:11:37;;;;;;;25.98;16.58;;;;;;;3.43;100.00;100951.34;4986293;28;20057;-76
2022/12/25 05:14:02;;;;;;;22.58;16.23;;;;;;;3.26;100.00;100947.25;4986247;28;20495;-77
2022/12/25 05:16:28;;;;;;;23.55;15.30;;;;;;;3.48;100.00;100967.97;4983872;28;20417;-77
2022/12/25 05:18:53;;;;;;;25.52;16.13;;;;;;;2.14;100.00;100741.72;4984500;28;20059;-75
2022/12/25 05:21:19;;;;;;;22.77;14.52;;;;;;;2.88;100.00;100845.53;4980955;28;20410;-76
2022/12/25 05:23:48;;;;;;;26.58;15.18;;;;;;;3.21;100.00;100941.88;5003790;28;20133;-77
2022/12/25 05:26:16;;;;;;;21.60;16.13;;;;;;;3.39;100.00;100980.59;4987133;28;20042;-77
2022/12/25 05:28:42;;;;;;;24.25;15.50;;;;;;;3.25;100.00;100946.34;4984396;28;20054;-77
2022/12/25 05:31:07;;;;;;;24.27;14.90;;;;;;;3.20;100.00;100936.63;4991471;28;20140;-76
2022/12/25 05:33:33;;;;;;;25.27;16.65;;;;;;;2.73;100.00;100905.44;5000258;28;20136;-76
2022/12/25 05:36:03;;;;;;;22.63;14.10;;;;;;;3.19;100.00;100981.56;5003643;28;20125;-78
2022/12/25 05:38:28;;;;;;;24.83;16.15;;;;;;;2.31;100.00;100846.81;5001949;28;20107;-76
2022/12/25 05:40:54;;;;;;;25.40;15.75;;;;;;;2.71;100.00;100923.50;5001905;28;20575;-76
2022/12/25 05:43:19;;;;;;;26.98;14.60;;;;;;;2.50;100.00;100863.09;4989174;28;20046;-76
2022/12/25 05:45:45;;;;;;;21.20;13.13;;;;;;;2.62;100.00;100902.44;5003543;28;20108;-77
2022/12/25 05:48:10;;;;;;;26.05;14.52;;;;;;;3.13;100.00;100979.59;5000061;28;20061;-76
2022/12/25 05:50:37;;;;;;;24.55;14.88;;;;;;;3.11;100.00;101005.47;4998069;28;20050;-76
2022/12/25 05:53:10;;;;;;;19.95;13.85;;;;;;;2.99;100.00;101025.69;4998706;28;20049;-77
2022/12/25 05:55:37;;;;;;;22.02;15.48;;;;;;;2.23;100.00;100871.50;4999290;28;20084;-78
2022/12/25 05:58:04;;;;;;;16.50;13.13;;;;;;;3.17;100.00;101038.53;4988024;28;20129;-77
2022/12/25 06:00:30;;;;;;;19.85;12.15;;;;;;;3.24;100.00;101037.94;4984985;28;20034;-78
2022/12/25 06:02:55;;;;;;;21.10;12.88;;;;;;;2.78;100.00;101020.53;5000834;28;20383;-76
2022/12/25 06:05:20;;;;;;;27.85;14.93;;;;;;;2.32;100.00;100922.81;5013427;28;20065;-76
2022/12/25 06:07:46;;;;;;;24.90;13.68;;;;;;;2.57;100.00;101022.22;5001356;28;20070;-76
2022/12/25 06:10:12;;;;;;;20.95;14.40;;;;;;;2.42;100.00;100953.44;5002226;28;20045;-76
2022/12/25 06:12:38;;;;;;;27.70;13.95;;;;;;;3.01;100.00;101041.31;4997294;28;20084;-75
2022/12/25 06:15:04;;;;;;;21.17;13.23;;;;;;;2.31;100.00;100915.84;5001843;28;20041;-76
2022/12/25 06:17:29;;;;;;;19.52;13.52;;;;;;;3.26;100.00;101064.81;5002202;28;20050;-77
2022/12/25 06:19:55;;;;;;;20.92;14.02;;;;;;;2.61;100.00;100970.59;4999925;28;20069;-78
2022/12/25 06:22:20;;;;;;;20.55;14.00;;;;;;;3.06;100.00;101050.16;5000020;28;20133;-77
2022/12/25 06:24:46;;;;;;;20.35;12.00;;;;;;;2.52;100.00;100947.78;5001027;28;20161;-77
2022/12/25 06:27:12;;;;;;;21.20;12.82;;;;;;;2.28;100.00;100931.25;4999776;28;20037;-75
2022/12/25 06:29:37;;;;;;;22.73;12.00;;;;;;;3.13;100.00;101047.00;5001647;28;20106;-76
2022/12/25 06:32:03;;;;;;;16.13;11.27;;;;;;;2.40;100.00;100933.47;4999703;28;20049;-76
2022/12/25 06:34:28;;;;;;;15.60;10.38;;;;;;;3.33;100.00;101074.63;4999582;28;20054;-77
2022/12/25 06:36:54;;;;;;;18.15;11.93;;;;;;;2.99;100.00;101030.88;5000957;28;20061;-76
2022/12/25 06:39:24;;;;;;;21.48;11.52;;;;;;;3.01;100.00;101044.78;4997922;28;20458;-77
2022/12/25 06:41:49;;;;;;;16.58;10.55;;;;;;;3.00;100.00;101042.13;5002060;28;20105;-76
2022/12/25 06:44:15;;;;;;;14.05;10.40;;;;;;;2.65;100.00;100933.66;4983611;28;20062;-76
2022/12/25 06:46:40;;;;;;;21.63;10.88;;;;;;;3.34;100.00;101071.19;4999851;28;20060;-76
2022/12/25 06:49:06;;;;;;;16.77;10.57;;;;;;;2.64;100.00;100936.16;4995177;28;20573;-77
2022/12/25 06:51:32;;;;;;;25.95;13.80;;;;;;;2.97;100.00;100970.31;4981152;28;20038;-78
2022/12/25 06:53:58;;;;;;;16.20;10.90;;;;;;;3.59;100.00;101080.84;4987888;28;20045;-78
2022/12/25 06:56:27;;;;;;;17.95;12.23;;;;;;;3.61;100.00;101087.81;4996575;28;20081;-77
2022/12/25 06:59:05;;;;;;;18.88;12.20;;;;;;;3.54;100.00;101078.91;4955534;28;20046;-78
2022/12/25 07:01:56;;;;;;;17.50;11.00;;;;;;;3.56;100.00;101090.22;4953863;28;20042;-76
2022/12/25 07:04:35;;;;;;;16.95;11.07;;;;;;;3.73;100.00;101114.22;4949562;28;20142;-76
2022/12/25 07:07:01;;;;;;;16.77;12.70;;;;;;;3.53;100.00;101033.88;4946956;28;20059;-76
2022/12/25 07:09:27;;;;;;;18.65;12.57;;;;;;;3.78;100.00;101089.34;4945929;28;20046;-77
2022/12/25 07:11:53;;;;;;;20.30;12.45;;;;;;;3.40;100.00;100999.66;4962304;28;20034;-76
2022/12/25 07:14:21;;;;;;;16.80;11.98;;;;;;;4.12;100.00;101101.88;4949651;28;20055;-76
2022/12/25 07:16:47;;;;;;;18.77;13.23;;;;;;;4.19;100.00;101103.88;4951038;28;20065;-76
2022/12/25 07:19:13;;;;;;;15.65;10.75;;;;;;;4.16;100.00;101071.69;4951484;28;20098;-77
2022/12/25 07:21:38;;;;;;;18.20;10.63;;;;;;;3.57;100.00;100976.09;4960809;28;20039;-78
2022/12/25 07:24:04;;;;;;;18.73;12.50;;;;;;;3.76;100.00;100990.63;4950987;28;20031;-76
2022/12/25 07:26:30;;;;;;;18.85;13.63;;;;;;;3.72;100.00;100969.72;4952481;28;20050;-77
2022/12/25 07:28:55;;;;;;;18.92;12.00;;;;;;;4.34;100.00;101071.50;4950547;28;20054;-77
2022/12/25 07:31:21;;;;;;;18.35;11.45;;;;;;;4.10;100.00;101003.97;4949358;28;20076;-78
2022/12/25 07:33:46;;;;;;;66.40;16.13;;;;;;;4.47;100.00;101036.41;4951852;28;20051;-77
2022/12/25 07:36:13;;;;;;;18.70;13.70;;;;;;;4.77;100.00;101071.25;4969173;28;20050;-77
2022/12/25 07:38:39;;;;;;;13.48;9.75;;;;;;;4.45;100.00;101000.00;4968892;28;20051;-76
2022/12/25 07:41:08;;;;;;;16.20;11.07;;;;;;;4.35;100.00;100984.91;4967079;28;20045;-76
2022/12/25 07:43:33;;;;;;;18.48;13.77;;;;;;;5.17;100.00;101095.13;4966039;28;20038;-76
2022/12/25 07:45:59;;;;;;;19.77;11.52;;;;;;;5.16;100.00;101078.63;4969727;28;20089;-78
2022/12/25 07:48:28;;;;;;;22.60;13.85;;;;;;;4.61;100.00;101017.00;4970152;28;20027;-78
2022/12/25 07:51:01;;;;;;;21.52;15.55;;;;;;;5.14;100.00;101087.22;4973141;28;20043;-77
2022/12/25 07:53:28;;;;;;;19.20;12.82;;;;;;;5.49;100.00;101123.06;4970723;28;20046;-78
2022/12/25 07:56:05;;;;;;;20.90;14.65;;;;;;;4.93;100.00;100991.19;4966717;28;20169;-76
2022/12/25 07:58:31;;;;;;;20.75;13.23;;;;;;;5.38;100.00;101038.56;4990173;28;20054;-79
2022/12/25 08:01:19;;;;;;;16.60;12.25;;;;;;;6.06;100.00;101126.56;5004025;28;20061;-77
2022/12/25 08:04:03;;;;;;;19.92;13.10;;;;;;;5.61;100.00;101012.38;5007167;28;20062;-77
2022/12/25 08:06:31;;;;;;;21.00;12.60;;;;;;;6.00;100.00;101071.72;5009401;28;20108;-78
2022/12/25 08:09:03;;;;;;;24.02;13.10;;;;;;;5.68;100.00;101007.38;5010324;28;20104;-77
2022/12/25 08:11:28;;;;;;;21.65;13.27;;;;;;;6.09;100.00;101065.03;5007210;28;20093;-76
2022/12/25 08:13:54;;;;;;;19.90;13.90;;;;;;;6.68;100.00;101144.88;5009573;28;20536;-76
2022/12/25 08:16:19;;;;;;;19.75;13.68;;;;;;;6.77;100.00;101155.56;5009046;28;20042;-76
2022/12/25 08:18:45;;;;;;;26.88;14.18;;;;;;;6.78;100.00;101126.03;5008212;28;20038;-77
2022/12/25 08:21:13;;;;;;;24.95;13.75;;;;;;;6.72;100.00;101124.13;4998114;28;20033;-76
2022/12/25 08:23:41;;;;;;;27.90;16.23;;;;;;;6.12;100.00;101006.94;5005083;28;20053;-76
2022/12/25 08:26:09;;;;;;;28.08;16.55;;;;;;;6.66;100.00;101104.84;5008996;28;20108;-77
2022/12/25 08:28:35;;;;;;;23.77;16.33;;;;;;;6.87;100.00;101148.88;5009085;28;20053;-77
2022/12/25 08:31:14;;;;;;;22.60;16.58;;;;;;;7.03;100.00;101148.44;5009171;28;20052;-77
2022/12/25 08:33:40;;;;;;;23.65;14.18;;;;;;;7.03;100.00;101124.94;5007716;28;20144;-76
2022/12/25 08:36:08;;;;;;;22.42;15.50;;;;;;;7.13;100.00;101132.16;4997489;28;20508;-77
2022/12/25 08:38:34;;;;;;;20.95;15.48;;;;;;;7.31;100.00;101143.94;4990398;28;20052;-77
2022/12/25 08:41:00;;;;;;;20.92;14.07;;;;;;;6.73;100.00;101011.13;5009321;28;20057;-77
2022/12/25 08:43:25;;;;;;;23.75;15.75;;;;;;;7.16;100.00;101086.97;5009286;28;20397;-77
2022/12/25 08:45:51;;;;;;;23.45;15.65;;;;;;;7.60;100.00;101131.56;5008810;28;20060;-79
2022/12/25 08:48:16;;;;;;;19.67;12.52;;;;;;;7.75;100.00;101126.72;5009332;28;20033;-75
2022/12/25 08:50:50;;;;;;;21.80;14.80;;;;;;;7.73;100.00;101122.31;4990877;28;20049;-77
2022/12/25 08:53:16;;;;;;;21.40;15.80;;;;;;;7.66;100.00;101083.84;5005580;28;20049;-78
2022/12/25 08:55:42;;;;;;;18.63;11.27;;;;;;;7.24;100.00;101012.38;4994040;28;20116;-77
2022/12/25 08:58:08;;;;;;;19.88;14.00;;;;;;;8.12;100.00;101152.78;4980457;28;20050;-76
2022/12/25 09:00:34;;;;;;;20.75;15.00;;;;;;;8.12;100.00;101132.72;4983632;28;20030;-76
2022/12/25 09:02:59;;;;;;;16.85;12.73;;;;;;;7.46;100.00;100987.63;4982166;28;20461;-76
2022/12/25 09:05:24;;;;;;;18.10;12.35;;;;;;;8.12;100.00;101105.72;4980385;28;20055;-77
2022/12/25 09:07:50;;;;;;;17.98;13.13;;;;;;;8.42;100.00;101129.03;4978466;28;20810;-77
2022/12/25 09:10:15;;;;;;;18.83;12.63;;;;;;;8.60;100.00;101157.31;4980349;28;20050;-77
2022/12/25 09:12:41;;;;;;;17.02;12.05;;;;;;;7.81;100.00;101001.44;4979486;28;20118;-76
2022/12/25 09:15:07;;;;;;;17.80;13.73;;;;;;;8.70;100.00;101137.44;4963488;28;20542;-76
2022/12/25 09:17:32;;;;;;;20.00;14.68;;;;;;;8.61;100.00;101117.22;4978102;28;20137;-76
2022/12/25 09:19:58;;;;;;;20.33;14.98;;;;;;;8.25;100.00;101058.06;4983349;28;20164;-76
2022/12/25 09:22:24;;;;;;;18.88;13.90;;;;;;;8.17;100.00;101034.41;4979757;28;20156;-78
2022/12/25 09:24:49;;;;;;;21.00;14.57;;;;;;;8.95;100.00;101157.13;4978414;28;20042;-78
2022/12/25 09:27:15;;;;;;;21.90;14.63;;;;;;;8.81;100.00;101131.56;4976038;28;20482;-77
2022/12/25 09:29:40;;;;;;;21.08;13.77;;;;;;;8.39;100.00;101027.84;4979806;28;20050;-76
2022/12/25 09:32:06;;;;;;;16.73;13.27;;;;;;;8.36;100.00;101024.31;4985645;28;20050;-76
2022/12/25 09:34:32;;;;;;;18.27;13.52;;;;;;;8.38;100.00;101007.78;4987324;28;20137;-76
2022/12/25 09:36:57;;;;;;;17.17;12.52;;;;;;;9.19;100.00;101130.47;4988247;28;20354;-76
2022/12/25 09:39:23;;;;;;;19.05;12.25;;;;;;;9.00;100.00;101090.03;4988957;28;20667;-76
2022/12/25 09:42:02;;;;;;;20.92;13.13;;;;;;;8.93;100.00;101075.06;5000869;28;20454;-77
2022/12/25 09:44:41;;;;;;;21.70;14.10;;;;;;;9.42;100.00;101147.47;4990237;28;20073;-76
2022/12/25 09:47:13;;;;;;;15.13;13.25;;;;;;;8.92;100.00;101039.25;4986082;28;20093;-77
2022/12/25 09:50:04;;;;;;;16.15;12.25;;;;;;;9.41;100.00;101085.47;4988307;28;20058;-77
2022/12/25 09:53:03;;;;;;;22.13;14.40;;;;;;;9.76;100.00;101171.56;4987006;28;20053;-78
2022/12/25 09:55:32;;;;;;;18.95;12.70;;;;;;;9.29;100.00;101052.13;4967001;28;20129;-77
2022/12/25 09:58:11;;;;;;;20.63;12.85;;;;;;;10.02;100.00;101153.63;5101574;27;20606;-77
2022/12/25 10:00:44;;;;;;;18.60;12.52;;;;;;;9.76;100.00;101113.91;5074186;28;20039;-75
2022/12/25 10:03:16;;;;;;;;;;;;;;;10.10;100.00;101154.59;5072621;28;20031;-74
2022/12/25 10:06:16;;;;;;;19.83;13.82;;;;;;;10.14;100.00;101137.19;5067035;28;19924;-77
2022/12/25 10:09:06;;;;;;;15.77;13.60;;;;;;;10.43;100.00;101148.06;5072393;28;20048;-78
2022/12/25 10:11:34;;;;;;;15.93;12.88;;;;;;;9.82;100.00;101047.63;5072429;28;20044;-76
2022/12/25 10:14:25;;;;;;;17.90;12.98;;;;;;;10.39;100.00;101124.41;5074873;28;20121;-77
2022/12/25 10:17:09;;;;;;;18.38;13.82;;;;;;;10.66;100.00;101169.34;5073980;28;20075;-77
2022/12/25 10:19:44;;;;;;;17.77;13.48;;;;;;;10.84;100.00;101162.53;5074721;28;20456;-77
2022/12/25 10:22:15;;;;;;;20.33;12.10;;;;;;;10.11;100.00;101064.59;5080220;28;20072;-77
2022/12/25 10:25:00;;;;;;;18.08;12.75;;;;;;;10.30;100.00;101056.97;5074413;28;20162;-77
2022/12/25 10:27:33;;;;;;;18.67;11.65;;;;;;;10.93;100.00;101173.13;5071591;28;20090;-77
2022/12/25 10:30:01;;;;;;;19.77;11.30;;;;;;;10.45;100.00;101035.28;5052573;28;20143;-77
2022/12/25 10:32:26;;;;;;;16.60;11.32;;;;;;;10.32;100.00;101008.94;5054976;28;20102;-77
2022/12/25 10:34:52;;;;;;;14.73;10.00;;;;;;;10.90;100.00;101099.59;5059918;28;20036;-77
2022/12/25 10:37:18;;;;;;;12.48;9.25;;;;;;;10.80;100.00;101054.00;5052190;28;20123;-76
2022/12/25 10:39:44;;;;;;;14.55;10.13;;;;;;;10.54;100.00;101017.03;5056640;28;20068;-77
2022/12/25 10:42:43;;;;;;;13.45;10.18;;;;;;;11.88;100.00;101150.34;5062269;28;20395;-77
2022/12/25 10:45:09;;;;;;;14.20;9.02;;;;;;;12.34;100.00;101153.25;5074623;28;20052;-76
2022/12/25 10:47:39;;;;;;;13.52;8.95;;;;;;;11.80;100.00;101020.56;5055861;28;20077;-77
2022/12/25 10:50:18;;;;;;;13.18;8.32;;;;;;;12.50;100.00;101151.53;5051920;28;20120;-77
2022/12/25 10:53:08;;;;;;;11.88;7.68;;;;;;;12.58;100.00;101083.16;5052734;28;20056;-76
2022/12/25 10:55:33;;;;;;;12.65;9.38;;;;;;;12.16;100.00;101025.13;5052462;28;20056;-77
2022/12/25 10:58:00;;;;;;;16.15;10.13;;;;;;;12.61;100.00;101159.50;5053825;28;20072;-75
2022/12/25 11:00:30;;;;;;;7.43;4.80;;;;;;;11.79;100.00;101056.47;5072207;28;20036;-77
2022/12/25 11:02:56;;;;;;;8.27;4.25;;;;;;;12.87;100.00;101136.75;5074884;28;20036;-76
2022/12/25 11:05:31;;;;;;;7.38;4.18;;;;;;;13.40;100.00;101132.44;5058040;28;20130;-77
2022/12/25 11:07:59;;;;;;;5.88;3.25;;;;;;;12.85;100.00;101041.06;5047166;28;20068;-77
2022/12/25 11:10:31;;;;;;;9.80;3.85;;;;;;;13.16;100.00;101088.50;5040063;28;20500;-77
2022/12/25 11:12:57;;;;;;;5.53;3.05;;;;;;;11.40;100.00;100849.53;5045712;28;20126;-77
2022/12/25 11:15:44;;;;;;;6.55;3.50;;;;;;;12.37;100.00;101065.53;5056750;28;20053;-77
2022/12/25 11:18:34;;;;;;;13.90;4.53;;;;;;;13.30;100.00;101172.88;5060030;28;20032;-78
2022/12/25 11:21:13;;;;;;;6.80;3.95;;;;;;;13.13;100.00;101137.66;5052743;28;20056;-77
2022/12/25 11:23:44;;;;;;;7.63;3.35;;;;;;;13.12;100.00;101138.56;5057701;28;20072;-77
2022/12/25 11:26:10;;;;;;;8.90;4.25;;;;;;;12.46;100.00;101139.25;5060512;28;20488;-77
2022/12/25 11:28:39;;;;;;;7.35;4.38;;;;;;;12.29;100.00;101041.84;5060278;28;20041;-77
2022/12/25 11:31:08;;;;;;;8.85;4.93;;;;;;;12.82;100.00;101170.09;5059641;28;20036;-78
2022/12/25 11:33:37;;;;;;;7.78;4.53;;;;;;;13.07;100.00;101162.25;5055885;28;20380;-77
2022/12/25 11:36:14;;;;;;;6.10;4.28;;;;;;;12.95;100.00;101144.69;5059307;28;20122;-77
2022/12/25 11:38:40;;;;;;;9.57;4.28;;;;;;;13.18;100.00;101163.16;5074842;28;20061;-78
2022/12/25 11:41:09;;;;;;;7.32;4.13;;;;;;;13.20;100.00;101144.69;5045314;28;20053;-77
2022/12/25 11:43:51;;;;;;;11.52;3.50;;;;;;;13.09;100.00;101157.88;5051970;28;20045;-77
2022/12/25 11:46:50;;;;;;;6.68;2.90;;;;;;;12.27;100.00;101156.72;5062746;28;20036;-77
2022/12/25 11:49:19;;;;;;;8.05;3.70;;;;;;;11.64;100.00;101060.78;5016439;28;20048;-77
2022/12/25 11:51:48;;;;;;;8.73;4.13;;;;;;;12.61;100.00;101160.38;5044395;28;20045;-77
2022/12/25 11:54:44;;;;;;;7.72;4.43;;;;;;;12.88;100.00;101163.97;5060042;28;20036;-75
2022/12/25 11:57:10;;;;;;;7.07;3.20;;;;;;;12.51;100.00;101137.53;5060099;28;20056;-76
2022/12/25 12:00:03;;;;;;;5.20;3.13;;;;;;;12.41;100.00;101099.78;5057105;28;20048;-76
2022/12/25 12:02:35;;;;;;;6.78;3.22;;;;;;;12.84;100.00;101176.25;5045225;28;20420;-77
2022/12/25 12:05:08;;;;;;;7.22;4.00;;;;;;;12.16;100.00;101051.44;5057641;28;20059;-77
2022/12/25 12:07:35;;;;;;;7.55;3.92;;;;;;;12.60;100.00;101141.97;5048050;28;20110;-76
2022/12/25 12:10:15;;;;;;;6.35;3.95;;;;;;;12.28;100.00;101157.59;5042179;28;20056;-76
2022/12/25 12:12:59;;;;;;;7.57;3.25;;;;;;;12.46;100.00;101190.16;5045905;28;20124;-78
2022/12/25 12:15:30;;;;;;;;;;;;;;;12.22;100.00;101172.50;5041606;28;20041;-75
2022/12/25 12:18:26;;;;;;;9.23;3.70;;;;;;;12.53;100.00;101177.03;5043413;28;19921;-76
2022/12/25 12:21:05;;;;;;;9.07;4.00;;;;;;;11.92;100.00;101075.00;5043594;28;20161;-77
2022/12/25 12:23:35;;;;;;;7.97;4.15;;;;;;;12.42;100.00;101155.91;5056965;28;20045;-78
2022/12/25 12:26:02;;;;;;;7.40;3.33;;;;;;;11.33;100.00;100955.47;5056699;28;20053;-77
2022/12/25 12:28:36;;;;;;;9.18;3.72;;;;;;;12.57;100.00;101176.16;5058763;28;20134;-77
2022/12/25 12:31:04;;;;;;;4.93;3.38;;;;;;;11.78;100.00;101040.72;5051926;28;20103;-77
2022/12/25 12:33:55;;;;;;;5.93;3.47;;;;;;;12.49;100.00;101181.38;5036999;28;20028;-78
2022/12/25 12:36:25;;;;;;;7.35;4.15;;;;;;;12.46;100.00;101168.22;5038403;28;20037;-78
2022/12/25 12:38:52;;;;;;;5.65;3.15;;;;;;;11.97;100.00;101082.03;5039823;28;20098;-77
2022/12/25 12:41:17;;;;;;;8.85;4.15;;;;;;;11.48;100.00;100980.97;5039206;28;20073;-79
2022/12/25 12:43:56;;;;;;;18.15;3.63;;;;;;;12.64;100.00;101138.44;5036318;28;20068;-78
2022/12/25 12:46:34;;;;;;;7.85;4.57;;;;;;;12.85;100.00;101193.81;5037028;28;20412;-77
2022/12/25 12:49:18;;;;;;;8.20;5.20;;;;;;;12.88;100.00;101191.19;5036710;28;20155;-78
2022/12/25 12:51:43;;;;;;;6.97;4.68;;;;;;;12.81;100.00;101165.72;5038084;28;20115;-76
2022/12/25 12:54:24;;;;;;;6.70;3.65;;;;;;;13.34;100.00;101166.72;5038584;28;20476;-78
2022/12/25 12:57:20;;;;;;;7.28;4.55;;;;;;;13.35;100.00;101205.38;5037586;28;20049;-78
2022/12/25 12:59:46;;;;;;;9.45;5.38;;;;;;;13.02;100.00;101188.59;5056300;28;20114;-77
2022/12/25 13:02:15;;;;;;;5.90;3.33;;;;;;;12.89;100.00;101213.13;5055343;28;20163;-76
2022/12/25 13:05:29;;;;;;;9.13;5.97;;;;;;;11.93;100.00;101069.72;5052726;28;20041;-78
2022/12/25 13:08:23;;;;;;;11.38;5.85;;;;;;;12.64;100.00;101184.09;5029926;28;20058;-78